MLD026 LYTV-LUKK
Flight info
| Callsign | MLD026 |
|---|---|
| Flight time | 1h 23m |
| Altitude | 33000 |
| Route | NIK DCT VTN DCT ANASA DCT LEBAT DCT BOTNA T34 LIPTA |
| Aircraft | T134/M-SDRWY/C |
Departure
| Time | 2026-05-07 07:27 |
|---|---|
| Airport | Tivat Airport (LYTV) |
Arrival
| Time | 2026-05-07 08:51 |
|---|---|
| Airport | Chişinău International Airport (LUKK) |
| Time | Latitude | Longitude | Altitude | Speed | Heading |
|---|---|---|---|---|---|
| 2026-05-07 06:56 | 42.41164 | 18.71743 | 18 ft | 0 kts | 164° |
| 2026-05-07 07:19 | 42.41163 | 18.71743 | 14 ft | 1 kts | 163° |
| 2026-05-07 07:20 | 42.41154 | 18.71747 | 15 ft | 2 kts | 161° |
| 2026-05-07 07:20 | 42.41141 | 18.71744 | 14 ft | 3 kts | 229° |
| 2026-05-07 07:20 | 42.41150 | 18.71702 | 14 ft | 6 kts | 315° |
| 2026-05-07 07:20 | 42.41194 | 18.71653 | 13 ft | 9 kts | 318° |
| 2026-05-07 07:21 | 42.41247 | 18.71586 | 13 ft | 9 kts | 319° |
| 2026-05-07 07:21 | 42.41283 | 18.71544 | 13 ft | 7 kts | 319° |
| 2026-05-07 07:21 | 42.41325 | 18.71500 | 13 ft | 6 kts | 324° |
| 2026-05-07 07:21 | 42.41355 | 18.71456 | 13 ft | 6 kts | 291° |
| 2026-05-07 07:22 | 42.41340 | 18.71383 | 11 ft | 10 kts | 228° |
| 2026-05-07 07:22 | 42.41271 | 18.71382 | 10 ft | 3 kts | 141° |
| 2026-05-07 07:26 | 42.41270 | 18.71383 | 10 ft | 0 kts | 141° |
| 2026-05-07 07:26 | 42.41260 | 18.71394 | 10 ft | 17 kts | 141° |
| 2026-05-07 07:27 | 42.40956 | 18.71751 | 15 ft | 95 kts | 140° |
| 2026-05-07 07:27 | 42.40295 | 18.72527 | 19 ft | 155 kts | 138° |
| 2026-05-07 07:27 | 42.39385 | 18.73586 | 304 ft | 179 kts | 139° |
| 2026-05-07 07:27 | 42.38376 | 18.74645 | 879 ft | 193 kts | 144° |
| 2026-05-07 07:28 | 42.37227 | 18.75637 | 1602 ft | 201 kts | 149° |
| 2026-05-07 07:28 | 42.36018 | 18.76570 | 2458 ft | 200 kts | 149° |
| 2026-05-07 07:28 | 42.34761 | 18.77508 | 2892 ft | 220 kts | 152° |
| 2026-05-07 07:28 | 42.33556 | 18.78690 | 3570 ft | 212 kts | 128° |
| 2026-05-07 07:29 | 42.33022 | 18.80421 | 4184 ft | 203 kts | 86° |
| 2026-05-07 07:29 | 42.33387 | 18.82248 | 4688 ft | 201 kts | 58° |
| 2026-05-07 07:29 | 42.34415 | 18.83426 | 5107 ft | 204 kts | 16° |
| 2026-05-07 07:29 | 42.35902 | 18.83351 | 5150 ft | 231 kts | 344° |
| 2026-05-07 07:30 | 42.37444 | 18.82619 | 5457 ft | 241 kts | 340° |
| 2026-05-07 07:30 | 42.38992 | 18.81889 | 6207 ft | 230 kts | 351° |
| 2026-05-07 07:30 | 42.40592 | 18.81824 | 6492 ft | 241 kts | 4° |
| 2026-05-07 07:30 | 42.42322 | 18.81924 | 6829 ft | 250 kts | 1° |
| 2026-05-07 07:31 | 42.44069 | 18.81977 | 7182 ft | 258 kts | 1° |
| 2026-05-07 07:31 | 42.45878 | 18.82262 | 7551 ft | 264 kts | 15° |
| 2026-05-07 07:31 | 42.47657 | 18.82898 | 7947 ft | 270 kts | 13° |
| 2026-05-07 07:31 | 42.49520 | 18.83428 | 8357 ft | 275 kts | 11° |
| 2026-05-07 07:32 | 42.51392 | 18.83929 | 8775 ft | 279 kts | 11° |
| 2026-05-07 07:32 | 42.53316 | 18.84454 | 9228 ft | 282 kts | 9° |
| 2026-05-07 07:32 | 42.55235 | 18.84965 | 9668 ft | 285 kts | 11° |
| 2026-05-07 07:32 | 42.57191 | 18.85522 | 10131 ft | 287 kts | 12° |
| 2026-05-07 07:33 | 42.59128 | 18.86139 | 10575 ft | 290 kts | 12° |
| 2026-05-07 07:33 | 42.61112 | 18.86776 | 10961 ft | 295 kts | 12° |
| 2026-05-07 07:33 | 42.63122 | 18.87419 | 11206 ft | 305 kts | 12° |
| 2026-05-07 07:33 | 42.65232 | 18.88091 | 11458 ft | 314 kts | 12° |
| 2026-05-07 07:34 | 42.67370 | 18.88772 | 11753 ft | 322 kts | 11° |
| 2026-05-07 07:34 | 42.69598 | 18.89482 | 12044 ft | 331 kts | 11° |
| 2026-05-07 07:34 | 42.71838 | 18.90200 | 12342 ft | 337 kts | 13° |
| 2026-05-07 07:34 | 42.74023 | 18.91471 | 12642 ft | 346 kts | 32° |
| 2026-05-07 07:35 | 42.75852 | 18.93678 | 12900 ft | 355 kts | 50° |
| 2026-05-07 07:35 | 42.77243 | 18.96458 | 13101 ft | 364 kts | 57° |
| 2026-05-07 07:35 | 42.78636 | 18.99394 | 13311 ft | 371 kts | 57° |
| 2026-05-07 07:35 | 42.80025 | 19.02342 | 13678 ft | 376 kts | 57° |
| 2026-05-07 07:36 | 42.81457 | 19.05375 | 14127 ft | 381 kts | 57° |
| 2026-05-07 07:36 | 42.82880 | 19.08385 | 14472 ft | 383 kts | 57° |
| 2026-05-07 07:36 | 42.84332 | 19.11463 | 14758 ft | 386 kts | 57° |
| 2026-05-07 07:36 | 42.85771 | 19.14516 | 15045 ft | 388 kts | 57° |
| 2026-05-07 07:37 | 42.87237 | 19.17629 | 15343 ft | 389 kts | 57° |
| 2026-05-07 07:37 | 42.88688 | 19.20708 | 15642 ft | 391 kts | 57° |
| 2026-05-07 07:37 | 42.90169 | 19.23851 | 15948 ft | 393 kts | 57° |
| 2026-05-07 07:37 | 42.91633 | 19.26963 | 16271 ft | 395 kts | 57° |
| 2026-05-07 07:38 | 42.93121 | 19.30133 | 16610 ft | 396 kts | 57° |
| 2026-05-07 07:38 | 42.94591 | 19.33264 | 16946 ft | 396 kts | 57° |
| 2026-05-07 07:38 | 42.96086 | 19.36451 | 17284 ft | 398 kts | 57° |
| 2026-05-07 07:38 | 42.97571 | 19.39620 | 17768 ft | 394 kts | 57° |
| 2026-05-07 07:39 | 42.99040 | 19.42760 | 17784 ft | 406 kts | 57° |
| 2026-05-07 07:39 | 43.00591 | 19.46065 | 17846 ft | 416 kts | 57° |
| 2026-05-07 07:39 | 43.02136 | 19.49366 | 18010 ft | 417 kts | 57° |
| 2026-05-07 07:39 | 43.03702 | 19.52719 | 18296 ft | 417 kts | 57° |
| 2026-05-07 07:40 | 43.05243 | 19.56016 | 18580 ft | 416 kts | 57° |
| 2026-05-07 07:40 | 43.06799 | 19.59353 | 18847 ft | 417 kts | 57° |
| 2026-05-07 07:40 | 43.08359 | 19.62702 | 19084 ft | 418 kts | 57° |
| 2026-05-07 07:40 | 43.09924 | 19.66064 | 19283 ft | 420 kts | 58° |
| 2026-05-07 07:41 | 43.11492 | 19.69430 | 19399 ft | 422 kts | 58° |
| 2026-05-07 07:41 | 43.13070 | 19.72826 | 19500 ft | 423 kts | 58° |
| 2026-05-07 07:41 | 43.14655 | 19.76239 | 19682 ft | 423 kts | 58° |
| 2026-05-07 07:41 | 43.16211 | 19.79596 | 19860 ft | 422 kts | 58° |
| 2026-05-07 07:42 | 43.17767 | 19.82957 | 20093 ft | 421 kts | 58° |
| 2026-05-07 07:42 | 43.19342 | 19.86362 | 20363 ft | 421 kts | 58° |
| 2026-05-07 07:42 | 43.20910 | 19.89755 | 20628 ft | 420 kts | 58° |
| 2026-05-07 07:42 | 43.22456 | 19.93107 | 20886 ft | 421 kts | 58° |
| 2026-05-07 07:43 | 43.24020 | 19.96497 | 21128 ft | 421 kts | 58° |
| 2026-05-07 07:43 | 43.25595 | 19.99913 | 21329 ft | 423 kts | 58° |
| 2026-05-07 07:43 | 43.27153 | 20.03296 | 21533 ft | 425 kts | 58° |
| 2026-05-07 07:43 | 43.28741 | 20.06745 | 21743 ft | 426 kts | 58° |
| 2026-05-07 07:44 | 43.30331 | 20.10203 | 21949 ft | 428 kts | 58° |
| 2026-05-07 07:44 | 43.31902 | 20.13628 | 22151 ft | 429 kts | 58° |
| 2026-05-07 07:44 | 43.33502 | 20.17121 | 22358 ft | 431 kts | 58° |
| 2026-05-07 07:44 | 43.35081 | 20.20566 | 22509 ft | 433 kts | 58° |
| 2026-05-07 07:45 | 43.36696 | 20.24092 | 22705 ft | 436 kts | 58° |
| 2026-05-07 07:45 | 43.38308 | 20.27609 | 22908 ft | 438 kts | 58° |
| 2026-05-07 07:45 | 43.39930 | 20.31150 | 23100 ft | 440 kts | 58° |
| 2026-05-07 07:45 | 43.41569 | 20.34728 | 23285 ft | 442 kts | 58° |
| 2026-05-07 07:46 | 43.43186 | 20.38265 | 23434 ft | 443 kts | 58° |
| 2026-05-07 07:46 | 43.44837 | 20.41876 | 23575 ft | 445 kts | 58° |
| 2026-05-07 07:46 | 43.46493 | 20.45503 | 23719 ft | 446 kts | 58° |
| 2026-05-07 07:46 | 43.48127 | 20.49083 | 23864 ft | 447 kts | 58° |
| 2026-05-07 07:47 | 43.49785 | 20.52722 | 24020 ft | 448 kts | 57° |
| 2026-05-07 07:47 | 43.51425 | 20.56325 | 24167 ft | 449 kts | 57° |
| 2026-05-07 07:47 | 43.53088 | 20.59982 | 24318 ft | 450 kts | 57° |
| 2026-05-07 07:47 | 43.54731 | 20.63597 | 24469 ft | 450 kts | 57° |
| 2026-05-07 07:48 | 43.56398 | 20.67266 | 24665 ft | 451 kts | 58° |
| 2026-05-07 07:48 | 43.58044 | 20.70890 | 24879 ft | 451 kts | 58° |
| 2026-05-07 07:48 | 43.59714 | 20.74572 | 25096 ft | 451 kts | 58° |
| 2026-05-07 07:48 | 43.61385 | 20.78257 | 25312 ft | 452 kts | 58° |
| 2026-05-07 07:49 | 43.63036 | 20.81900 | 25530 ft | 452 kts | 58° |
| 2026-05-07 07:49 | 43.64704 | 20.85588 | 25743 ft | 452 kts | 58° |
| 2026-05-07 07:49 | 43.66329 | 20.89256 | 25940 ft | 453 kts | 62° |
| 2026-05-07 07:49 | 43.67602 | 20.93250 | 26132 ft | 453 kts | 68° |
| 2026-05-07 07:50 | 43.68780 | 20.97230 | 26309 ft | 454 kts | 69° |
| 2026-05-07 07:50 | 43.69901 | 21.01318 | 26485 ft | 454 kts | 68° |
| 2026-05-07 07:50 | 43.71147 | 21.05279 | 26661 ft | 455 kts | 66° |
| 2026-05-07 07:50 | 43.72407 | 21.09309 | 26835 ft | 456 kts | 66° |
| 2026-05-07 07:51 | 43.73680 | 21.13346 | 26948 ft | 458 kts | 66° |
| 2026-05-07 07:51 | 43.74939 | 21.17351 | 27064 ft | 460 kts | 66° |
| 2026-05-07 07:51 | 43.76223 | 21.21432 | 27186 ft | 462 kts | 66° |
| 2026-05-07 07:51 | 43.77492 | 21.25469 | 27311 ft | 463 kts | 66° |
| 2026-05-07 07:52 | 43.78765 | 21.29519 | 27429 ft | 465 kts | 66° |
| 2026-05-07 07:52 | 43.80061 | 21.33643 | 27547 ft | 466 kts | 66° |
| 2026-05-07 07:52 | 43.81356 | 21.37766 | 27666 ft | 467 kts | 66° |
| 2026-05-07 07:52 | 43.82637 | 21.41845 | 27785 ft | 467 kts | 66° |
| 2026-05-07 07:53 | 43.83940 | 21.45991 | 27910 ft | 468 kts | 65° |
| 2026-05-07 07:53 | 43.85223 | 21.50080 | 28035 ft | 469 kts | 65° |
| 2026-05-07 07:53 | 43.86528 | 21.54240 | 28163 ft | 469 kts | 65° |
| 2026-05-07 07:53 | 43.87816 | 21.58345 | 28290 ft | 470 kts | 65° |
| 2026-05-07 07:54 | 43.89124 | 21.62518 | 28420 ft | 470 kts | 65° |
| 2026-05-07 07:54 | 43.90411 | 21.66620 | 28546 ft | 471 kts | 66° |
| 2026-05-07 07:54 | 43.91715 | 21.70780 | 28663 ft | 469 kts | 66° |
| 2026-05-07 07:54 | 43.93018 | 21.74937 | 28774 ft | 467 kts | 66° |
| 2026-05-07 07:55 | 43.94293 | 21.79011 | 28878 ft | 466 kts | 66° |
| 2026-05-07 07:55 | 43.95589 | 21.83150 | 28981 ft | 466 kts | 66° |
| 2026-05-07 07:55 | 43.96864 | 21.87222 | 29081 ft | 465 kts | 66° |
| 2026-05-07 07:55 | 43.98156 | 21.91352 | 29182 ft | 464 kts | 66° |
| 2026-05-07 07:56 | 43.99429 | 21.95423 | 29277 ft | 464 kts | 66° |
| 2026-05-07 07:56 | 44.01985 | 22.03608 | 29460 ft | 463 kts | 65° |
| 2026-05-07 07:57 | 44.04536 | 22.11784 | 29648 ft | 463 kts | 65° |
| 2026-05-07 07:57 | 44.07088 | 22.19964 | 29829 ft | 463 kts | 65° |
| 2026-05-07 07:58 | 44.09640 | 22.28157 | 30008 ft | 464 kts | 65° |
| 2026-05-07 07:58 | 44.12208 | 22.36408 | 30192 ft | 464 kts | 65° |
| 2026-05-07 07:59 | 44.14761 | 22.44623 | 30373 ft | 464 kts | 65° |
| 2026-05-07 07:59 | 44.17318 | 22.52859 | 30555 ft | 465 kts | 65° |
| 2026-05-07 08:00 | 44.19874 | 22.61104 | 30739 ft | 466 kts | 65° |
| 2026-05-07 08:00 | 44.22518 | 22.69316 | 30916 ft | 466 kts | 63° |
| 2026-05-07 08:01 | 44.25294 | 22.77446 | 31084 ft | 467 kts | 63° |
| 2026-05-07 08:01 | 44.28064 | 22.85597 | 31254 ft | 468 kts | 63° |
| 2026-05-07 08:02 | 44.30838 | 22.93764 | 31428 ft | 468 kts | 63° |
| 2026-05-07 08:02 | 44.33611 | 23.01940 | 31602 ft | 469 kts | 63° |
| 2026-05-07 08:03 | 44.36393 | 23.10146 | 31777 ft | 469 kts | 62° |
| 2026-05-07 08:03 | 44.39180 | 23.18369 | 31954 ft | 470 kts | 62° |
| 2026-05-07 08:04 | 44.41973 | 23.26609 | 32132 ft | 471 kts | 62° |
| 2026-05-07 08:04 | 44.44767 | 23.34860 | 32312 ft | 471 kts | 62° |
| 2026-05-07 08:05 | 44.47567 | 23.43132 | 32495 ft | 472 kts | 62° |
| 2026-05-07 08:05 | 44.50370 | 23.51419 | 32680 ft | 473 kts | 61° |
| 2026-05-07 08:06 | 44.53176 | 23.59717 | 32866 ft | 474 kts | 61° |
| 2026-05-07 08:06 | 44.55999 | 23.68066 | 32923 ft | 477 kts | 62° |
| 2026-05-07 08:07 | 44.58837 | 23.76472 | 32967 ft | 479 kts | 62° |
| 2026-05-07 08:07 | 44.61672 | 23.84879 | 33047 ft | 478 kts | 62° |
| 2026-05-07 08:08 | 44.64527 | 23.93352 | 33081 ft | 479 kts | 62° |
| 2026-05-07 08:08 | 44.67365 | 24.01781 | 33089 ft | 481 kts | 61° |
| 2026-05-07 08:09 | 44.70209 | 24.10238 | 33080 ft | 481 kts | 61° |
| 2026-05-07 08:09 | 44.73048 | 24.18700 | 33075 ft | 480 kts | 61° |
| 2026-05-07 08:10 | 44.75879 | 24.27146 | 33077 ft | 479 kts | 61° |
| 2026-05-07 08:10 | 44.78710 | 24.35594 | 33079 ft | 479 kts | 61° |
| 2026-05-07 08:11 | 44.81538 | 24.44040 | 33081 ft | 479 kts | 61° |
| 2026-05-07 08:11 | 44.84365 | 24.52492 | 33083 ft | 479 kts | 61° |
| 2026-05-07 08:12 | 44.87186 | 24.60939 | 33081 ft | 479 kts | 61° |
| 2026-05-07 08:12 | 44.90015 | 24.69415 | 33075 ft | 479 kts | 62° |
| 2026-05-07 08:13 | 44.92836 | 24.77885 | 33072 ft | 479 kts | 62° |
| 2026-05-07 08:13 | 44.95651 | 24.86349 | 33072 ft | 478 kts | 62° |
| 2026-05-07 08:14 | 44.98461 | 24.94812 | 33074 ft | 478 kts | 62° |
| 2026-05-07 08:14 | 45.01262 | 25.03264 | 33070 ft | 476 kts | 62° |
| 2026-05-07 08:15 | 45.04061 | 25.11721 | 33065 ft | 475 kts | 62° |
| 2026-05-07 08:15 | 45.06856 | 25.20173 | 33068 ft | 475 kts | 62° |
| 2026-05-07 08:16 | 45.09635 | 25.28594 | 33077 ft | 474 kts | 62° |
| 2026-05-07 08:16 | 45.12588 | 25.36865 | 33087 ft | 468 kts | 50° |
| 2026-05-07 08:17 | 45.16950 | 25.43536 | 33110 ft | 463 kts | 42° |
| 2026-05-07 08:17 | 45.21389 | 25.50166 | 33120 ft | 464 kts | 43° |
| 2026-05-07 08:18 | 45.25743 | 25.56848 | 33129 ft | 464 kts | 43° |
| 2026-05-07 08:18 | 45.30069 | 25.63610 | 33131 ft | 463 kts | 44° |
| 2026-05-07 08:19 | 45.34257 | 25.70539 | 33131 ft | 464 kts | 47° |
| 2026-05-07 08:19 | 45.38697 | 25.77147 | 33129 ft | 462 kts | 43° |
| 2026-05-07 08:20 | 45.43069 | 25.83848 | 33117 ft | 463 kts | 45° |
| 2026-05-07 08:20 | 45.47318 | 25.90726 | 33024 ft | 466 kts | 46° |
| 2026-05-07 08:21 | 45.51454 | 25.97805 | 32858 ft | 468 kts | 48° |
| 2026-05-07 08:21 | 45.55456 | 26.05042 | 32942 ft | 463 kts | 50° |
| 2026-05-07 08:22 | 45.59302 | 26.12357 | 33111 ft | 460 kts | 51° |
| 2026-05-07 08:22 | 45.63007 | 26.19809 | 33132 ft | 463 kts | 52° |
| 2026-05-07 08:23 | 45.66608 | 26.27436 | 33120 ft | 465 kts | 53° |
| 2026-05-07 08:23 | 45.70209 | 26.35116 | 33103 ft | 465 kts | 53° |
| 2026-05-07 08:24 | 45.73695 | 26.42892 | 32782 ft | 471 kts | 61° |
| 2026-05-07 08:24 | 45.75083 | 26.47111 | 32487 ft | 468 kts | 61° |
| 2026-05-07 08:24 | 45.76477 | 26.51255 | 32189 ft | 467 kts | 62° |
| 2026-05-07 08:24 | 45.77873 | 26.55455 | 31892 ft | 464 kts | 61° |
| 2026-05-07 08:25 | 45.79250 | 26.59567 | 31515 ft | 462 kts | 61° |
| 2026-05-07 08:25 | 45.80633 | 26.63711 | 31165 ft | 457 kts | 61° |
| 2026-05-07 08:25 | 45.82001 | 26.67815 | 30811 ft | 453 kts | 62° |
| 2026-05-07 08:25 | 45.83340 | 26.71830 | 30458 ft | 450 kts | 62° |
| 2026-05-07 08:26 | 45.86016 | 26.79859 | 29816 ft | 446 kts | 62° |
| 2026-05-07 08:26 | 45.87355 | 26.83878 | 29515 ft | 444 kts | 62° |
| 2026-05-07 08:26 | 45.88668 | 26.87824 | 29219 ft | 442 kts | 62° |
| 2026-05-07 08:27 | 45.89995 | 26.91813 | 28928 ft | 440 kts | 62° |
| 2026-05-07 08:27 | 45.91299 | 26.95732 | 28647 ft | 439 kts | 62° |
| 2026-05-07 08:27 | 45.92617 | 26.99695 | 28365 ft | 438 kts | 62° |
| 2026-05-07 08:27 | 45.93910 | 27.03589 | 28094 ft | 438 kts | 62° |
| 2026-05-07 08:28 | 45.95228 | 27.07559 | 27824 ft | 438 kts | 62° |
| 2026-05-07 08:28 | 45.96545 | 27.11527 | 27558 ft | 438 kts | 62° |
| 2026-05-07 08:28 | 45.97838 | 27.15427 | 27300 ft | 437 kts | 62° |
| 2026-05-07 08:28 | 45.99141 | 27.19365 | 27042 ft | 436 kts | 63° |
| 2026-05-07 08:29 | 46.00301 | 27.23304 | 26784 ft | 425 kts | 62° |
| 2026-05-07 08:29 | 46.01569 | 27.27089 | 26503 ft | 411 kts | 62° |
| 2026-05-07 08:29 | 46.02753 | 27.30703 | 26209 ft | 399 kts | 62° |
| 2026-05-07 08:29 | 46.03931 | 27.34275 | 25895 ft | 389 kts | 62° |
| 2026-05-07 08:30 | 46.05083 | 27.37772 | 25563 ft | 381 kts | 62° |
| 2026-05-07 08:30 | 46.06196 | 27.41142 | 25225 ft | 373 kts | 62° |
| 2026-05-07 08:30 | 46.07304 | 27.44498 | 24868 ft | 367 kts | 62° |
| 2026-05-07 08:30 | 46.08379 | 27.47753 | 24506 ft | 361 kts | 62° |
| 2026-05-07 08:31 | 46.09454 | 27.51011 | 24071 ft | 358 kts | 62° |
| 2026-05-07 08:31 | 46.10502 | 27.54196 | 23639 ft | 355 kts | 62° |
| 2026-05-07 08:31 | 46.11555 | 27.57397 | 23204 ft | 351 kts | 63° |
| 2026-05-07 08:31 | 46.12597 | 27.60570 | 22769 ft | 348 kts | 63° |
| 2026-05-07 08:32 | 46.13616 | 27.63676 | 22334 ft | 345 kts | 63° |
| 2026-05-07 08:32 | 46.14640 | 27.66810 | 21891 ft | 342 kts | 63° |
| 2026-05-07 08:32 | 46.15634 | 27.69856 | 21458 ft | 338 kts | 63° |
| 2026-05-07 08:32 | 46.16634 | 27.72924 | 21053 ft | 334 kts | 63° |
| 2026-05-07 08:33 | 46.17614 | 27.75931 | 20482 ft | 336 kts | 63° |
| 2026-05-07 08:33 | 46.18614 | 27.78997 | 19905 ft | 337 kts | 63° |
| 2026-05-07 08:33 | 46.19601 | 27.82027 | 19344 ft | 338 kts | 63° |
| 2026-05-07 08:33 | 46.20601 | 27.85099 | 18784 ft | 337 kts | 63° |
| 2026-05-07 08:34 | 46.21586 | 27.88124 | 18223 ft | 336 kts | 63° |
| 2026-05-07 08:34 | 46.22576 | 27.91169 | 17709 ft | 332 kts | 63° |
| 2026-05-07 08:34 | 46.23543 | 27.94142 | 17207 ft | 329 kts | 63° |
| 2026-05-07 08:34 | 46.24513 | 27.97129 | 16701 ft | 326 kts | 63° |
| 2026-05-07 08:35 | 46.25459 | 28.00041 | 16221 ft | 321 kts | 63° |
| 2026-05-07 08:35 | 46.26402 | 28.02945 | 15821 ft | 315 kts | 63° |
| 2026-05-07 08:35 | 46.27314 | 28.05757 | 15420 ft | 310 kts | 64° |
| 2026-05-07 08:35 | 46.28225 | 28.08566 | 15013 ft | 305 kts | 64° |
| 2026-05-07 08:36 | 46.29106 | 28.11283 | 14663 ft | 299 kts | 64° |
| 2026-05-07 08:36 | 46.29984 | 28.13994 | 14304 ft | 294 kts | 64° |
| 2026-05-07 08:36 | 46.30838 | 28.16632 | 13943 ft | 289 kts | 63° |
| 2026-05-07 08:36 | 46.31688 | 28.19257 | 13576 ft | 285 kts | 63° |
| 2026-05-07 08:37 | 46.32513 | 28.21810 | 13211 ft | 281 kts | 64° |
| 2026-05-07 08:37 | 46.33339 | 28.24369 | 12838 ft | 278 kts | 64° |
| 2026-05-07 08:37 | 46.34143 | 28.26863 | 12469 ft | 275 kts | 64° |
| 2026-05-07 08:37 | 46.34947 | 28.29364 | 12094 ft | 272 kts | 64° |
| 2026-05-07 08:38 | 46.35731 | 28.31805 | 11721 ft | 269 kts | 64° |
| 2026-05-07 08:38 | 46.36520 | 28.34261 | 11341 ft | 267 kts | 64° |
| 2026-05-07 08:38 | 46.37260 | 28.36675 | 10962 ft | 264 kts | 70° |
| 2026-05-07 08:38 | 46.37993 | 28.39092 | 10587 ft | 259 kts | 52° |
| 2026-05-07 08:39 | 46.39153 | 28.41021 | 10247 ft | 255 kts | 48° |
| 2026-05-07 08:39 | 46.40401 | 28.42830 | 9889 ft | 251 kts | 39° |
| 2026-05-07 08:39 | 46.41715 | 28.44441 | 9533 ft | 249 kts | 40° |
| 2026-05-07 08:39 | 46.43037 | 28.46060 | 9167 ft | 247 kts | 40° |
| 2026-05-07 08:40 | 46.44333 | 28.47636 | 8803 ft | 244 kts | 39° |
| 2026-05-07 08:40 | 46.45777 | 28.48928 | 8428 ft | 245 kts | 26° |
| 2026-05-07 08:40 | 46.47288 | 28.50034 | 8074 ft | 246 kts | 27° |
| 2026-05-07 08:40 | 46.48826 | 28.51141 | 7785 ft | 244 kts | 27° |
| 2026-05-07 08:41 | 46.50349 | 28.52235 | 7524 ft | 242 kts | 27° |
| 2026-05-07 08:41 | 46.51830 | 28.53291 | 7313 ft | 237 kts | 27° |
| 2026-05-07 08:41 | 46.53351 | 28.54200 | 7081 ft | 234 kts | 15° |
| 2026-05-07 08:41 | 46.54900 | 28.54807 | 6875 ft | 230 kts | 17° |
| 2026-05-07 08:42 | 46.56442 | 28.55416 | 6698 ft | 229 kts | 16° |
| 2026-05-07 08:42 | 46.57976 | 28.56015 | 6544 ft | 231 kts | 16° |
| 2026-05-07 08:42 | 46.59539 | 28.56625 | 6421 ft | 231 kts | 16° |
| 2026-05-07 08:42 | 46.61081 | 28.57227 | 6302 ft | 232 kts | 16° |
| 2026-05-07 08:43 | 46.62649 | 28.57832 | 6186 ft | 232 kts | 15° |
| 2026-05-07 08:43 | 46.64212 | 28.58335 | 6064 ft | 233 kts | 8° |
| 2026-05-07 08:43 | 46.65847 | 28.58485 | 5920 ft | 235 kts | 0° |
| 2026-05-07 08:43 | 46.67471 | 28.58363 | 5814 ft | 236 kts | 354° |
| 2026-05-07 08:44 | 46.69108 | 28.58209 | 5715 ft | 233 kts | 2° |
| 2026-05-07 08:44 | 46.70725 | 28.58462 | 5441 ft | 238 kts | 13° |
| 2026-05-07 08:44 | 46.72264 | 28.59281 | 5188 ft | 231 kts | 33° |
| 2026-05-07 08:44 | 46.73515 | 28.60663 | 4830 ft | 227 kts | 43° |
| 2026-05-07 08:45 | 46.74689 | 28.62194 | 4528 ft | 223 kts | 45° |
| 2026-05-07 08:45 | 46.75789 | 28.63705 | 4326 ft | 214 kts | 47° |
| 2026-05-07 08:45 | 46.76860 | 28.65191 | 4064 ft | 211 kts | 42° |
| 2026-05-07 08:45 | 46.78051 | 28.66418 | 3776 ft | 211 kts | 32° |
| 2026-05-07 08:46 | 46.79280 | 28.67531 | 3598 ft | 206 kts | 36° |
| 2026-05-07 08:46 | 46.80437 | 28.68748 | 3114 ft | 204 kts | 42° |
| 2026-05-07 08:46 | 46.81356 | 28.70102 | 3141 ft | 171 kts | 59° |
| 2026-05-07 08:46 | 46.81928 | 28.71595 | 3082 ft | 171 kts | 61° |
| 2026-05-07 08:47 | 46.82727 | 28.72923 | 3158 ft | 172 kts | 44° |
| 2026-05-07 08:47 | 46.83690 | 28.73953 | 3228 ft | 175 kts | 33° |
| 2026-05-07 08:47 | 46.84763 | 28.74836 | 3282 ft | 179 kts | 29° |
| 2026-05-07 08:47 | 46.85924 | 28.75563 | 3222 ft | 184 kts | 15° |
| 2026-05-07 08:48 | 46.87168 | 28.75901 | 3273 ft | 176 kts | 17° |
| 2026-05-07 08:48 | 46.88277 | 28.76658 | 3088 ft | 186 kts | 31° |
| 2026-05-07 08:48 | 46.89432 | 28.77650 | 2793 ft | 196 kts | 37° |
| 2026-05-07 08:48 | 46.90468 | 28.78810 | 2769 ft | 185 kts | 41° |
| 2026-05-07 08:49 | 46.91423 | 28.80034 | 2435 ft | 179 kts | 52° |
| 2026-05-07 08:49 | 46.92071 | 28.81517 | 2118 ft | 168 kts | 70° |
| 2026-05-07 08:49 | 46.92437 | 28.83115 | 1648 ft | 170 kts | 81° |
| 2026-05-07 08:49 | 46.92610 | 28.84809 | 1237 ft | 165 kts | 91° |
| 2026-05-07 08:50 | 46.92656 | 28.86434 | 908 ft | 158 kts | 95° |
| 2026-05-07 08:50 | 46.92643 | 28.88004 | 699 ft | 158 kts | 92° |
| 2026-05-07 08:50 | 46.92716 | 28.89655 | 488 ft | 168 kts | 90° |
| 2026-05-07 08:50 | 46.92745 | 28.91359 | 352 ft | 171 kts | 91° |
| 2026-05-07 08:51 | 46.92764 | 28.93050 | 334 ft | 151 kts | 89° |
| 2026-05-07 08:51 | 46.92809 | 28.94268 | 334 ft | 85 kts | 91° |
| 2026-05-07 08:51 | 46.92816 | 28.94792 | 333 ft | 41 kts | 90° |
| 2026-05-07 08:51 | 46.92822 | 28.95029 | 333 ft | 12 kts | 86° |
| 2026-05-07 08:52 | 46.92884 | 28.95107 | 333 ft | 13 kts | 7° |
| 2026-05-07 08:52 | 46.92985 | 28.95096 | 333 ft | 15 kts | 336° |
| 2026-05-07 08:52 | 46.93028 | 28.94953 | 333 ft | 16 kts | 277° |
| 2026-05-07 08:52 | 46.93041 | 28.94777 | 333 ft | 18 kts | 272° |
| 2026-05-07 08:53 | 46.93049 | 28.94584 | 333 ft | 17 kts | 273° |
| 2026-05-07 08:53 | 46.93064 | 28.94399 | 333 ft | 19 kts | 277° |
| 2026-05-07 08:53 | 46.93084 | 28.94211 | 333 ft | 13 kts | 278° |
| 2026-05-07 08:53 | 46.93098 | 28.94065 | 333 ft | 15 kts | 277° |
| 2026-05-07 08:54 | 46.93111 | 28.93902 | 333 ft | 17 kts | 276° |
| 2026-05-07 08:54 | 46.93131 | 28.93717 | 333 ft | 19 kts | 281° |
| 2026-05-07 08:54 | 46.93145 | 28.93562 | 333 ft | 11 kts | 275° |
| 2026-05-07 08:54 | 46.93174 | 28.93453 | 333 ft | 12 kts | 339° |
| 2026-05-07 08:55 | 46.93269 | 28.93461 | 333 ft | 15 kts | 5° |
| 2026-05-07 08:55 | 46.93312 | 28.93481 | 333 ft | 5 kts | 63° |
| 2026-05-07 08:55 | 46.93314 | 28.93551 | 333 ft | 8 kts | 94° |
| 2026-05-07 08:55 | 46.93354 | 28.93595 | 333 ft | 5 kts | 8° |
| 2026-05-07 08:56 | 46.93362 | 28.93597 | 333 ft | 0 kts | 6° |